createdAt,value
2022-12-18T00:00:08.655Z,13.00
2022-12-18T00:02:58.924Z,17.05
2022-12-18T00:06:21.485Z,17.15
2022-12-18T00:08:48.671Z,13.75
2022-12-18T00:11:17.749Z,15.63
2022-12-18T00:13:45.379Z,17.52
2022-12-18T00:16:20.537Z,17.25
2022-12-18T00:18:48.967Z,12.50
2022-12-18T00:21:18.361Z,12.32
2022-12-18T00:23:46.290Z,11.65
2022-12-18T00:26:24.397Z,11.57
2022-12-18T00:28:58.257Z,15.50
2022-12-18T00:31:28.602Z,14.70
2022-12-18T00:33:56.185Z,14.07
2022-12-18T00:36:25.780Z,15.77
2022-12-18T00:44:45.878Z,13.57
2022-12-18T00:47:13.316Z,12.85
2022-12-18T00:49:42.900Z,16.30
2022-12-18T00:52:10.003Z,13.15
2022-12-18T00:54:40.313Z,14.35
2022-12-18T00:57:09.122Z,15.27
2022-12-18T00:59:42.910Z,15.10
2022-12-18T01:02:14.291Z,15.90
2022-12-18T01:04:41.032Z,13.38
2022-12-18T01:07:07.731Z,15.40
2022-12-18T01:09:34.980Z,15.98
2022-12-18T01:12:01.634Z,16.23
2022-12-18T01:14:34.442Z,14.75
2022-12-18T01:17:04.002Z,14.75
2022-12-18T01:19:35.895Z,17.88
2022-12-18T01:22:08.431Z,11.98
2022-12-18T01:24:35.244Z,11.38
2022-12-18T01:27:03.404Z,14.70
2022-12-18T01:29:30.166Z,13.90
2022-12-18T01:31:57.116Z,13.30
2022-12-18T01:34:27.070Z,15.60
2022-12-18T01:36:55.930Z,12.30
2022-12-18T01:39:25.067Z,16.38
2022-12-18T01:42:03.698Z,12.80
2022-12-18T01:44:55.735Z,14.70
2022-12-18T01:47:30.973Z,14.67
2022-12-18T01:50:01.050Z,11.80
2022-12-18T01:52:35.509Z,12.07
2022-12-18T01:55:11.302Z,10.45
2022-12-18T01:57:39.393Z,13.07
2022-12-18T02:00:20.441Z,16.48
2022-12-18T02:02:48.122Z,13.45
2022-12-18T02:05:44.225Z,13.52
2022-12-18T02:08:24.705Z,15.48
2022-12-18T02:11:25.727Z,18.73
2022-12-18T02:13:52.369Z,13.02
2022-12-18T02:16:36.530Z,12.00
2022-12-18T02:19:36.160Z,15.93
2022-12-18T02:22:21.115Z,13.82
2022-12-18T02:25:13.036Z,12.15
2022-12-18T02:27:49.939Z,11.10
2022-12-18T02:30:17.620Z,11.35
2022-12-18T02:32:49.813Z,9.80
2022-12-18T02:35:22.258Z,9.77
2022-12-18T02:37:57.908Z,10.43
2022-12-18T02:40:27.868Z,15.10
2022-12-18T02:42:55.526Z,16.85
2022-12-18T02:45:23.776Z,13.80
2022-12-18T02:47:53.122Z,17.23
2022-12-18T02:50:42.093Z,17.33
2022-12-18T02:53:31.199Z,13.07
2022-12-18T02:56:23.028Z,10.57
2022-12-18T02:59:01.254Z,11.48
2022-12-18T03:02:06.028Z,14.35
2022-12-18T03:04:34.467Z,14.80
2022-12-18T03:07:44.001Z,13.10
2022-12-18T03:10:19.966Z,14.07
2022-12-18T03:12:59.788Z,11.50
2022-12-18T03:15:34.456Z,10.43
2022-12-18T03:18:29.222Z,14.98
2022-12-18T03:21:00.040Z,14.73
2022-12-18T03:23:33.593Z,12.77
2022-12-18T03:26:13.705Z,12.30
2022-12-18T03:28:49.500Z,12.32
2022-12-18T03:31:23.139Z,11.35
2022-12-18T03:36:21.832Z,11.85
2022-12-18T03:38:51.910Z,12.55
2022-12-18T03:41:50.189Z,10.85
2022-12-18T03:44:50.254Z,10.95
2022-12-18T03:47:47.186Z,12.27
2022-12-18T03:50:27.554Z,10.80
2022-12-18T03:53:17.933Z,12.52
2022-12-18T03:55:49.659Z,11.60
2022-12-18T03:58:23.091Z,11.23
2022-12-18T04:01:08.284Z,10.75
2022-12-18T04:03:37.667Z,9.70
2022-12-18T04:06:07.604Z,10.45
2022-12-18T04:08:37.288Z,10.77
2022-12-18T04:11:07.574Z,10.20
2022-12-18T04:13:45.510Z,10.10
2022-12-18T04:16:19.984Z,10.43
2022-12-18T04:18:53.287Z,8.75
2022-12-18T04:21:23.357Z,10.50
2022-12-18T04:23:54.543Z,10.77
2022-12-18T04:26:23.323Z,9.13
2022-12-18T04:29:13.232Z,8.35
2022-12-18T04:31:40.264Z,9.25
2022-12-18T04:34:07.451Z,10.90
2022-12-18T04:39:08.114Z,9.32
2022-12-18T04:41:35.240Z,10.77
2022-12-18T04:44:05.600Z,10.07
2022-12-18T04:46:34.575Z,9.68
2022-12-18T04:49:03.824Z,10.30
2022-12-18T04:51:33.094Z,9.98
2022-12-18T04:53:59.637Z,10.43
2022-12-18T04:56:26.283Z,8.50
2022-12-18T04:58:55.438Z,9.52
2022-12-18T05:01:22.199Z,11.93
2022-12-18T05:03:51.400Z,10.55
2022-12-18T05:06:18.039Z,8.27
2022-12-18T05:08:47.174Z,10.15
2022-12-18T05:11:18.615Z,11.02
2022-12-18T05:13:47.786Z,9.88
2022-12-18T05:16:20.116Z,9.55
2022-12-18T05:18:49.087Z,10.52
2022-12-18T05:21:15.890Z,10.63
2022-12-18T05:23:47.298Z,9.38
2022-12-18T05:26:18.444Z,8.07
2022-12-18T05:28:48.009Z,10.32
2022-12-18T05:31:14.890Z,8.82
2022-12-18T05:33:42.159Z,9.93
2022-12-18T05:36:10.476Z,11.18
2022-12-18T05:38:39.500Z,8.95
2022-12-18T05:41:07.322Z,8.90
2022-12-18T05:43:36.223Z,10.90
2022-12-18T05:46:15.691Z,11.35
2022-12-18T05:48:43.465Z,8.95
2022-12-18T05:51:14.650Z,7.82
2022-12-18T05:53:44.172Z,9.18
2022-12-18T05:56:20.591Z,8.95
2022-12-18T05:58:49.658Z,10.07
2022-12-18T06:01:21.844Z,8.88
2022-12-18T06:03:48.809Z,10.25
2022-12-18T06:06:24.387Z,8.23
2022-12-18T06:08:51.816Z,7.55
2022-12-18T06:11:23.833Z,8.20
2022-12-18T06:16:28.302Z,8.10
2022-12-18T06:19:03.466Z,8.85
2022-12-18T06:21:31.047Z,9.75
2022-12-18T06:24:00.201Z,9.77
2022-12-18T06:26:28.541Z,10.27
2022-12-18T06:28:55.882Z,7.88
2022-12-18T06:31:22.610Z,7.32
2022-12-18T06:33:51.915Z,9.10
2022-12-18T06:36:21.198Z,9.18
2022-12-18T06:38:50.310Z,9.20
2022-12-18T06:41:19.357Z,7.65
2022-12-18T06:43:46.132Z,9.23
2022-12-18T06:46:15.001Z,8.40
2022-12-18T06:48:41.815Z,9.48
2022-12-18T06:51:10.984Z,7.55
2022-12-18T06:53:38.582Z,9.38
2022-12-18T06:56:10.154Z,8.18
2022-12-18T06:58:38.635Z,8.13
2022-12-18T07:01:11.938Z,8.90
2022-12-18T07:03:44.563Z,9.27
2022-12-18T07:06:21.850Z,9.00
2022-12-18T07:08:50.255Z,10.30
2022-12-18T07:11:23.069Z,9.30
2022-12-18T07:13:53.789Z,13.93
2022-12-18T07:16:25.204Z,14.55
2022-12-18T07:18:54.615Z,13.18
2022-12-18T07:21:23.828Z,13.80
2022-12-18T07:23:56.430Z,18.40
2022-12-18T07:26:23.362Z,18.77
2022-12-18T07:28:50.183Z,15.20
2022-12-18T07:31:19.920Z,13.35
2022-12-18T07:33:51.196Z,12.77
2022-12-18T07:36:18.917Z,13.50
2022-12-18T07:38:48.336Z,12.00
2022-12-18T07:41:16.686Z,10.55
2022-12-18T07:43:43.985Z,11.30
2022-12-18T07:46:17.243Z,12.50
2022-12-18T07:48:49.349Z,8.38
2022-12-18T07:51:41.232Z,10.45
2022-12-18T07:54:07.858Z,8.48
2022-12-18T07:56:39.380Z,10.38
2022-12-18T07:59:05.929Z,11.18
2022-12-18T08:01:37.233Z,8.05
2022-12-18T08:04:04.152Z,8.20
2022-12-18T08:06:33.472Z,11.15
2022-12-18T08:09:00.166Z,14.32
2022-12-18T08:11:28.145Z,16.40
2022-12-18T08:13:58.252Z,14.38
2022-12-18T08:16:25.851Z,16.27
2022-12-18T08:18:54.238Z,16.10
2022-12-18T08:21:26.973Z,15.98
2022-12-18T08:23:56.033Z,15.65
2022-12-18T08:26:23.837Z,17.25
2022-12-18T08:28:51.486Z,17.50
2022-12-18T08:31:19.186Z,15.90
2022-12-18T08:33:52.514Z,15.93
2022-12-18T08:36:20.487Z,16.38
2022-12-18T08:38:50.961Z,14.68
2022-12-18T08:41:20.529Z,15.55
2022-12-18T08:44:11.112Z,15.48
2022-12-18T08:46:41.235Z,16.33
2022-12-18T08:49:12.016Z,15.30
2022-12-18T08:51:41.375Z,17.23
2022-12-18T08:54:17.414Z,17.80
2022-12-18T08:56:44.231Z,23.40
2022-12-18T08:59:19.718Z,22.70
2022-12-18T09:02:01.282Z,20.20
2022-12-18T09:04:31.974Z,17.70
2022-12-18T09:06:58.628Z,15.98
2022-12-18T09:09:31.255Z,15.73
2022-12-18T09:14:29.853Z,14.05
2022-12-18T09:16:56.622Z,14.27
2022-12-18T09:19:23.382Z,15.40
2022-12-18T09:21:50.337Z,15.98
2022-12-18T09:24:19.870Z,13.23
2022-12-18T09:26:50.690Z,14.63
2022-12-18T09:29:19.245Z,14.90
2022-12-18T09:31:48.115Z,16.33
2022-12-18T09:34:15.565Z,17.95
2022-12-18T09:36:48.248Z,16.35
2022-12-18T09:39:15.616Z,16.30
2022-12-18T09:41:53.590Z,16.83
2022-12-18T09:44:23.138Z,14.27
2022-12-18T09:47:23.752Z,14.48
2022-12-18T09:50:00.705Z,15.23
2022-12-18T09:52:36.960Z,10.77
2022-12-18T09:55:36.582Z,10.10
2022-12-18T09:58:19.431Z,8.73
2022-12-18T10:00:47.843Z,9.65
2022-12-18T10:03:15.853Z,11.63
2022-12-18T10:06:13.651Z,11.48
2022-12-18T10:08:44.998Z,15.77
2022-12-18T10:11:28.522Z,15.85
2022-12-18T10:14:29.346Z,16.02
2022-12-18T10:17:02.800Z,16.33
2022-12-18T10:19:38.829Z,17.02
2022-12-18T10:22:24.856Z,16.00
2022-12-18T10:25:23.398Z,16.67
2022-12-18T10:27:56.163Z,25.88
2022-12-18T10:30:24.644Z,25.23
2022-12-18T10:32:53.091Z,20.90
2022-12-18T10:35:27.080Z,17.70
2022-12-18T10:38:07.887Z,19.15
2022-12-18T10:40:51.684Z,17.05
2022-12-18T10:43:29.466Z,18.05
2022-12-18T10:46:08.804Z,17.67
2022-12-18T10:48:56.465Z,17.20
2022-12-18T10:51:31.738Z,17.30
2022-12-18T10:54:02.450Z,16.45
2022-12-18T10:56:35.121Z,17.05
2022-12-18T10:59:08.501Z,16.55
2022-12-18T11:02:19.736Z,17.52
2022-12-18T11:04:55.378Z,18.13
2022-12-18T11:07:24.238Z,18.00
2022-12-18T11:10:02.914Z,17.42
2022-12-18T11:12:30.229Z,16.45
2022-12-18T11:15:00.367Z,17.67
2022-12-18T11:17:38.640Z,17.63
2022-12-18T11:20:18.445Z,18.70
2022-12-18T11:22:58.541Z,18.83
2022-12-18T11:25:33.509Z,17.10
2022-12-18T11:28:24.947Z,18.00
2022-12-18T11:31:23.392Z,17.13
2022-12-18T11:34:29.842Z,15.50
2022-12-18T11:37:03.695Z,16.17
2022-12-18T11:39:56.770Z,16.73
2022-12-18T11:42:35.931Z,17.30
2022-12-18T11:45:22.072Z,16.05
2022-12-18T11:48:16.436Z,16.52
2022-12-18T11:50:55.953Z,17.05
2022-12-18T11:53:24.401Z,17.02
2022-12-18T11:56:28.276Z,16.23
2022-12-18T11:59:16.911Z,16.92
2022-12-18T12:01:55.472Z,16.85
2022-12-18T12:04:47.313Z,17.30
2022-12-18T12:07:26.025Z,17.25
2022-12-18T12:10:23.371Z,17.77
2022-12-18T12:13:14.198Z,17.00
2022-12-18T12:15:46.925Z,18.75
2022-12-18T12:18:29.372Z,17.77
2022-12-18T12:21:18.944Z,17.83
2022-12-18T12:24:33.826Z,18.17
2022-12-18T12:27:15.101Z,18.58
2022-12-18T12:29:47.186Z,19.05
2022-12-18T12:32:32.421Z,18.60
2022-12-18T12:35:40.283Z,19.38
2022-12-18T12:38:18.138Z,18.27
2022-12-18T12:41:27.973Z,19.10
2022-12-18T12:44:00.348Z,19.55
2022-12-18T12:46:33.694Z,18.20
2022-12-18T12:49:04.467Z,18.92
2022-12-18T12:51:41.794Z,19.58
2022-12-18T12:54:26.650Z,20.38
2022-12-18T12:57:24.367Z,20.27
2022-12-18T13:03:24.605Z,19.00
2022-12-18T13:20:43.096Z,24.17
2022-12-18T13:23:24.622Z,21.38
2022-12-18T13:25:52.456Z,20.10
2022-12-18T13:28:25.201Z,19.65
2022-12-18T13:30:57.700Z,20.02
2022-12-18T13:34:23.888Z,23.83
2022-12-18T13:36:38.779Z,30.00
2022-12-18T13:39:34.828Z,26.77
2022-12-18T13:42:05.478Z,23.50
2022-12-18T13:47:39.335Z,20.23
2022-12-18T13:50:46.786Z,23.55
2022-12-18T13:53:22.206Z,16.08
2022-12-18T13:55:50.063Z,14.02
2022-12-18T13:58:16.739Z,15.88
2022-12-18T14:00:44.848Z,15.23
2022-12-18T14:03:22.891Z,13.93
2022-12-18T14:05:58.229Z,15.07
2022-12-18T14:08:28.723Z,13.13
2022-12-18T14:10:56.738Z,13.60
2022-12-18T14:13:37.849Z,14.75
2022-12-18T14:16:07.695Z,13.60
2022-12-18T14:18:52.783Z,13.80
2022-12-18T14:21:23.725Z,13.23
2022-12-18T14:24:23.689Z,14.25
2022-12-18T14:26:51.542Z,13.35
2022-12-18T14:29:20.827Z,14.45
2022-12-18T14:32:04.784Z,13.95
2022-12-18T14:34:31.463Z,13.25
2022-12-18T14:37:00.221Z,14.73
2022-12-18T14:39:33.044Z,14.80
2022-12-18T14:41:59.923Z,17.50
2022-12-18T14:44:39.126Z,15.60
2022-12-18T14:47:17.760Z,17.42
2022-12-18T14:49:44.755Z,15.93
2022-12-18T14:52:27.920Z,15.95
2022-12-18T14:54:57.142Z,13.80
2022-12-18T14:57:44.749Z,13.20
2022-12-18T15:00:18.966Z,13.45
2022-12-18T15:02:59.189Z,13.05
2022-12-18T15:05:31.042Z,13.85
2022-12-18T15:08:00.141Z,15.13
2022-12-18T15:10:33.361Z,13.52
2022-12-18T15:13:00.937Z,13.35
2022-12-18T15:15:36.116Z,11.48
2022-12-18T15:18:11.744Z,14.05
2022-12-18T15:20:57.935Z,13.90
2022-12-18T15:23:30.613Z,12.85
2022-12-18T15:26:03.609Z,13.63
2022-12-18T15:28:50.379Z,13.65
2022-12-18T15:31:36.988Z,12.98
2022-12-18T15:34:08.828Z,13.63
2022-12-18T15:36:36.792Z,12.35
2022-12-18T15:39:05.131Z,15.32
2022-12-18T15:41:36.866Z,13.48
2022-12-18T15:44:23.500Z,14.95
2022-12-18T15:46:52.917Z,13.68
2022-12-18T15:49:32.144Z,13.77
2022-12-18T15:52:01.951Z,14.45
2022-12-18T15:54:49.786Z,27.85
2022-12-18T15:57:23.977Z,25.65
2022-12-18T15:59:53.438Z,16.95
2022-12-18T16:02:22.937Z,15.90
2022-12-18T16:04:52.199Z,14.68
2022-12-18T16:07:25.137Z,13.93
2022-12-18T16:09:53.243Z,13.95
2022-12-18T16:12:23.021Z,14.25
2022-12-18T16:14:51.642Z,14.23
2022-12-18T16:17:18.328Z,12.77
2022-12-18T16:19:45.358Z,13.85
2022-12-18T16:22:22.285Z,14.65
2022-12-18T16:24:50.237Z,13.55
2022-12-18T16:27:17.722Z,12.73
2022-12-18T16:29:44.700Z,15.70
2022-12-18T16:32:19.736Z,14.13
2022-12-18T16:34:47.040Z,13.07
2022-12-18T16:37:15.566Z,13.30
2022-12-18T16:39:43.025Z,13.48
2022-12-18T16:42:16.470Z,14.50
2022-12-18T16:44:46.996Z,13.30
2022-12-18T16:47:15.329Z,14.85
2022-12-18T16:49:45.989Z,15.30
2022-12-18T16:52:18.717Z,14.00
2022-12-18T16:54:45.339Z,13.98
2022-12-18T16:57:17.874Z,14.15
2022-12-18T16:59:53.188Z,13.45
2022-12-18T17:02:23.846Z,13.02
2022-12-18T17:04:54.466Z,14.95
2022-12-18T17:07:23.132Z,14.63
2022-12-18T17:09:50.480Z,14.27
2022-12-18T17:12:17.720Z,12.48
2022-12-18T17:14:46.596Z,13.85
2022-12-18T17:17:23.109Z,13.75
2022-12-18T17:19:51.507Z,13.10
2022-12-18T17:22:20.020Z,13.45
2022-12-18T17:24:47.177Z,15.38
2022-12-18T17:27:15.315Z,14.02
2022-12-18T17:29:48.444Z,15.15
2022-12-18T17:32:17.019Z,15.07
2022-12-18T17:34:46.031Z,13.80
2022-12-18T17:37:12.973Z,15.02
2022-12-18T17:39:39.828Z,13.55
2022-12-18T17:42:06.760Z,14.68
2022-12-18T17:44:37.910Z,14.25
2022-12-18T17:47:07.175Z,13.95
2022-12-18T17:49:34.043Z,12.77
2022-12-18T17:52:02.634Z,14.63
2022-12-18T17:54:32.529Z,14.43
2022-12-18T17:57:02.216Z,14.68
2022-12-18T17:59:36.587Z,14.90
2022-12-18T18:02:03.525Z,14.30
2022-12-18T18:04:30.321Z,15.90
2022-12-18T18:06:59.935Z,18.85
2022-12-18T18:09:26.963Z,24.40
2022-12-18T18:12:12.230Z,19.67
2022-12-18T18:14:40.299Z,18.70
2022-12-18T18:17:09.442Z,18.65
2022-12-18T18:19:41.541Z,20.23
2022-12-18T18:22:09.855Z,20.10
2022-12-18T18:24:39.564Z,20.35
2022-12-18T18:27:06.349Z,19.35
2022-12-18T18:29:35.811Z,20.92
2022-12-18T18:32:07.680Z,37.83
2022-12-18T18:34:36.674Z,47.08
2022-12-18T18:37:08.649Z,28.88
2022-12-18T18:39:38.151Z,26.17
2022-12-18T18:42:07.497Z,27.60
2022-12-18T18:44:39.110Z,36.20
2022-12-18T18:47:08.568Z,31.33
2022-12-18T18:49:39.144Z,29.30
2022-12-18T18:52:06.782Z,24.08
2022-12-18T18:54:33.498Z,25.08
2022-12-18T18:59:48.396Z,20.85
2022-12-18T19:02:19.453Z,22.13
2022-12-18T19:04:47.132Z,21.45
2022-12-18T19:07:29.728Z,31.98
2022-12-18T19:10:00.029Z,25.27
2022-12-18T19:12:51.211Z,24.25
2022-12-18T19:15:21.200Z,27.02
2022-12-18T19:17:52.145Z,27.45
2022-12-18T19:20:19.222Z,27.00
2022-12-18T19:22:56.004Z,25.20
2022-12-18T19:25:30.677Z,24.65
2022-12-18T19:28:12.059Z,25.40
2022-12-18T19:31:10.539Z,26.10
2022-12-18T19:33:43.602Z,25.45
2022-12-18T19:36:11.317Z,23.30
2022-12-18T19:38:39.179Z,24.63
2022-12-18T19:41:09.763Z,23.80
2022-12-18T19:43:37.865Z,25.67
2022-12-18T19:46:10.215Z,23.48
2022-12-18T19:48:37.465Z,24.50
2022-12-18T19:51:10.620Z,22.23
2022-12-18T19:53:39.638Z,22.42
2022-12-18T19:56:07.579Z,22.02
2022-12-18T19:58:34.741Z,21.63
2022-12-18T20:01:06.248Z,22.00
2022-12-18T20:03:37.634Z,23.00
2022-12-18T20:06:24.189Z,24.33
2022-12-18T20:09:00.825Z,20.63
2022-12-18T20:11:31.248Z,21.98
2022-12-18T20:14:00.440Z,24.80
2022-12-18T20:16:29.689Z,24.85
2022-12-18T20:18:59.840Z,23.95
2022-12-18T20:21:28.157Z,23.13
2022-12-18T20:23:59.147Z,30.55
2022-12-18T20:26:26.531Z,31.65
2022-12-18T20:28:56.330Z,27.73
2022-12-18T20:31:26.181Z,28.75
2022-12-18T20:34:01.771Z,22.90
2022-12-18T20:36:35.116Z,28.45
2022-12-18T20:39:06.479Z,25.83
2022-12-18T20:41:41.612Z,23.52
2022-12-18T20:44:23.271Z,24.42
2022-12-18T20:46:53.075Z,21.13
2022-12-18T20:49:22.071Z,21.50
2022-12-18T20:51:55.968Z,24.25
2022-12-18T20:54:24.918Z,22.85
2022-12-18T20:56:51.592Z,28.17
2022-12-18T20:59:19.073Z,30.77
2022-12-18T21:01:48.275Z,25.30
2022-12-18T21:04:19.284Z,25.23
2022-12-18T21:06:53.085Z,25.70
2022-12-18T21:09:27.147Z,30.45
2022-12-18T21:12:13.924Z,28.27
2022-12-18T21:14:46.356Z,29.58
2022-12-18T21:17:14.324Z,25.00
2022-12-18T21:19:41.085Z,25.55
2022-12-18T21:22:09.091Z,26.23
2022-12-18T21:24:35.706Z,25.02
2022-12-18T21:27:02.842Z,24.88
2022-12-18T21:29:32.652Z,26.02
2022-12-18T21:31:59.884Z,27.30
2022-12-18T21:34:31.369Z,24.02
2022-12-18T21:37:01.171Z,30.60
2022-12-18T21:39:34.071Z,27.30
2022-12-18T21:42:19.712Z,26.92
2022-12-18T21:44:48.940Z,31.23
2022-12-18T21:47:22.002Z,23.08
2022-12-18T21:49:53.095Z,22.60
2022-12-18T21:52:31.694Z,20.05
2022-12-18T21:55:08.352Z,21.08
2022-12-18T21:57:38.771Z,23.02
2022-12-18T22:00:12.516Z,22.75
2022-12-18T22:02:48.759Z,22.73
2022-12-18T22:05:35.125Z,23.02
2022-12-18T22:08:06.968Z,29.52
2022-12-18T22:10:34.295Z,23.85
2022-12-18T22:13:01.037Z,24.02
2022-12-18T22:15:30.351Z,21.60
2022-12-18T22:18:00.529Z,24.30
2022-12-18T22:20:30.304Z,23.65
2022-12-18T22:23:05.894Z,22.65
2022-12-18T22:25:35.241Z,24.48
2022-12-18T22:28:25.252Z,23.90
2022-12-18T22:30:57.753Z,25.35
2022-12-18T22:33:27.689Z,24.77
2022-12-18T22:35:54.670Z,25.55
2022-12-18T22:38:23.616Z,22.90
2022-12-18T22:40:50.226Z,21.58
2022-12-18T22:43:18.959Z,21.08
2022-12-18T22:45:48.358Z,21.38
2022-12-18T22:48:18.119Z,22.63
2022-12-18T22:50:46.747Z,20.75
2022-12-18T22:53:13.393Z,20.83
2022-12-18T22:55:43.628Z,23.75
2022-12-18T22:58:10.345Z,21.15
2022-12-18T23:00:37.006Z,22.33
2022-12-18T23:03:04.079Z,23.00
2022-12-18T23:05:36.447Z,21.98
2022-12-18T23:08:05.588Z,22.52
2022-12-18T23:10:36.017Z,21.15
2022-12-18T23:13:02.656Z,22.55
2022-12-18T23:15:40.125Z,23.88
2022-12-18T23:18:06.942Z,23.63
2022-12-18T23:20:37.511Z,23.27
2022-12-18T23:23:07.928Z,24.20
2022-12-18T23:25:36.876Z,35.47
2022-12-18T23:28:03.986Z,30.55
2022-12-18T23:30:33.895Z,24.67
2022-12-18T23:33:00.623Z,22.92
2022-12-18T23:35:28.795Z,21.48
2022-12-18T23:37:59.513Z,21.27
2022-12-18T23:40:27.307Z,19.63
2022-12-18T23:42:53.869Z,22.85
2022-12-18T23:45:22.610Z,19.25
2022-12-18T23:47:50.999Z,19.17
2022-12-18T23:50:27.694Z,17.77
2022-12-18T23:53:03.277Z,18.70
2022-12-18T23:55:37.755Z,17.23
2022-12-18T23:58:04.409Z,17.98
